Terminal Aerodrome Forecast
Issued by NWS

Home | Current Version | Previous Version | Graphics & Text | Print | Product List | Glossary On
Versions: 1 2 3 4 5 6 7 8 9 10 11 12 13 14 15 16
000
FTUS42 KMHX 231500 AAA
TAFISO
TAF AMD
KISO 231538Z 2316/2412 08010KT P6SM OVC040
     FM231800 07007KT P6SM -RA SCT030 OVC040
     FM232200 07010KT 2SM RA BR OVC007 WS015/19040KT
     FM240800 30008KT 3SM -RA BR OVC005
      AMD LTD TO CLD VIS AND WIND=

USA.gov is the U.S. government's official web portal to all federal, state and local government web resources and services.